createdAt,value
2018-07-27T00:00:11.611Z,21.40
2018-07-27T00:02:39.996Z,21.40
2018-07-27T00:05:08.390Z,21.40
2018-07-27T00:07:36.847Z,21.30
2018-07-27T00:10:05.897Z,21.30
2018-07-27T00:12:34.159Z,21.20
2018-07-27T00:15:02.519Z,21.20
2018-07-27T00:17:30.877Z,21.20
2018-07-27T00:19:59.100Z,21.10
2018-07-27T00:22:27.350Z,21.00
2018-07-27T00:24:55.744Z,21.00
2018-07-27T00:27:24.032Z,21.00
2018-07-27T00:29:52.393Z,21.00
2018-07-27T00:32:20.725Z,20.90
2018-07-27T00:34:49.431Z,20.90
2018-07-27T00:37:17.671Z,20.80
2018-07-27T00:39:45.944Z,20.80
2018-07-27T00:42:14.310Z,20.90
2018-07-27T00:44:42.762Z,20.80
2018-07-27T00:47:11.063Z,20.80
2018-07-27T00:49:39.452Z,20.70
2018-07-27T00:52:07.825Z,20.80
2018-07-27T00:54:36.095Z,20.70
2018-07-27T00:57:04.379Z,20.70
2018-07-27T00:59:32.734Z,20.70
2018-07-27T01:02:01.019Z,20.70
2018-07-27T01:04:29.257Z,20.60
2018-07-27T01:06:57.548Z,20.70
2018-07-27T01:09:25.893Z,20.60
2018-07-27T01:11:54.282Z,20.50
2018-07-27T01:14:22.684Z,20.50
2018-07-27T01:16:57.495Z,20.50
2018-07-27T01:19:25.724Z,20.50
2018-07-27T01:21:54.068Z,20.50
2018-07-27T01:24:22.387Z,20.40
2018-07-27T01:26:50.726Z,20.40
2018-07-27T01:29:19.422Z,20.40
2018-07-27T01:31:47.724Z,20.40
2018-07-27T01:34:16.897Z,20.30
2018-07-27T01:36:45.265Z,20.30
2018-07-27T01:40:16.727Z,20.30
2018-07-27T01:42:45.024Z,20.30
2018-07-27T01:47:41.438Z,20.30
2018-07-27T01:50:09.739Z,20.20
2018-07-27T01:52:38.064Z,20.10
2018-07-27T01:55:06.658Z,20.10
2018-07-27T01:57:35.025Z,20.00
2018-07-27T02:00:03.357Z,20.10
2018-07-27T02:02:31.637Z,20.00
2018-07-27T02:04:59.910Z,20.00
2018-07-27T02:07:28.186Z,19.90
2018-07-27T02:09:56.440Z,19.90
2018-07-27T02:12:27.765Z,19.90
2018-07-27T02:14:56.065Z,19.90
2018-07-27T02:17:24.404Z,19.80
2018-07-27T02:19:52.695Z,19.70
2018-07-27T02:22:21.029Z,19.70
2018-07-27T02:24:49.349Z,19.60
2018-07-27T02:27:17.712Z,19.60
2018-07-27T02:29:46.040Z,19.50
2018-07-27T02:32:14.303Z,19.40
2018-07-27T02:34:42.576Z,19.40
2018-07-27T02:37:10.830Z,19.40
2018-07-27T02:39:39.124Z,19.50
2018-07-27T02:42:07.502Z,19.40
2018-07-27T02:44:35.819Z,19.30
2018-07-27T02:47:04.179Z,19.30
2018-07-27T02:49:32.486Z,19.30
2018-07-27T02:52:00.736Z,19.30
2018-07-27T02:54:29.052Z,19.30
2018-07-27T02:56:57.380Z,19.30
2018-07-27T02:59:25.686Z,19.40
2018-07-27T03:01:54.415Z,19.40
2018-07-27T03:04:22.641Z,19.40
2018-07-27T03:06:50.968Z,19.40
2018-07-27T03:09:19.232Z,19.30
2018-07-27T03:11:47.528Z,19.40
2018-07-27T03:14:15.863Z,19.30
2018-07-27T03:16:44.184Z,19.30
2018-07-27T03:19:12.521Z,19.20
2018-07-27T03:21:40.850Z,19.20
2018-07-27T03:24:09.209Z,19.20
2018-07-27T03:26:37.555Z,19.20
2018-07-27T03:29:05.903Z,19.20
2018-07-27T03:31:34.220Z,19.10
2018-07-27T03:34:02.501Z,19.10
2018-07-27T03:36:30.822Z,19.10
2018-07-27T03:38:59.188Z,19.10
2018-07-27T03:41:27.503Z,19.10
2018-07-27T03:43:55.744Z,19.00
2018-07-27T03:46:24.008Z,19.00
2018-07-27T03:48:53.504Z,19.00
2018-07-27T03:51:21.833Z,19.00
2018-07-27T03:53:50.127Z,19.00
2018-07-27T03:56:18.372Z,19.00
2018-07-27T03:58:46.634Z,19.00
2018-07-27T04:01:14.837Z,19.10
2018-07-27T04:03:43.151Z,18.90
2018-07-27T04:06:11.506Z,18.90
2018-07-27T04:08:39.841Z,19.00
2018-07-27T04:11:08.099Z,19.00
2018-07-27T04:13:36.426Z,19.00
2018-07-27T04:16:05.051Z,19.00
2018-07-27T04:18:33.321Z,19.00
2018-07-27T04:21:01.588Z,19.00
2018-07-27T04:23:29.941Z,19.00
2018-07-27T04:25:58.273Z,19.00
2018-07-27T04:28:26.554Z,19.00
2018-07-27T04:30:54.928Z,19.00
2018-07-27T04:35:51.449Z,19.00
2018-07-27T04:38:19.704Z,19.00
2018-07-27T04:40:48.115Z,19.00
2018-07-27T04:43:16.390Z,19.00
2018-07-27T04:45:44.654Z,19.00
2018-07-27T04:48:12.954Z,19.00
2018-07-27T04:50:41.231Z,19.10
2018-07-27T04:53:09.506Z,19.10
2018-07-27T04:55:37.835Z,19.00
2018-07-27T04:58:06.319Z,19.10
2018-07-27T05:00:34.627Z,19.10
2018-07-27T05:03:02.977Z,19.10
2018-07-27T05:05:31.351Z,19.10
2018-07-27T05:07:59.677Z,19.20
2018-07-27T05:10:33.379Z,19.30
2018-07-27T05:13:01.705Z,19.40
2018-07-27T05:15:30.088Z,19.40
2018-07-27T05:17:58.332Z,19.50
2018-07-27T05:20:26.644Z,19.50
2018-07-27T05:22:54.943Z,19.50
2018-07-27T05:25:23.269Z,19.60
2018-07-27T05:27:51.608Z,19.70
2018-07-27T05:30:19.866Z,19.70
2018-07-27T05:32:48.168Z,19.80
2018-07-27T05:35:16.519Z,19.90
2018-07-27T05:37:44.824Z,20.00
2018-07-27T05:40:13.146Z,20.10
2018-07-27T05:42:41.428Z,20.20
2018-07-27T05:45:09.639Z,20.30
2018-07-27T05:50:06.379Z,20.50
2018-07-27T05:52:34.629Z,20.60
2018-07-27T05:55:02.966Z,20.70
2018-07-27T05:57:31.356Z,20.80
2018-07-27T05:59:59.597Z,20.90
2018-07-27T06:02:27.907Z,21.00
2018-07-27T06:04:56.231Z,21.10
2018-07-27T06:07:24.437Z,21.20
2018-07-27T06:09:53.022Z,21.20
2018-07-27T06:12:21.351Z,21.30
2018-07-27T06:14:49.659Z,21.30
2018-07-27T06:17:17.958Z,21.60
2018-07-27T06:19:46.302Z,21.60
2018-07-27T06:22:14.564Z,21.80
2018-07-27T06:24:52.745Z,21.90
2018-07-27T06:27:21.204Z,22.10
2018-07-27T06:29:49.896Z,22.20
2018-07-27T06:32:18.738Z,22.40
2018-07-27T06:34:47.256Z,22.50
2018-07-27T06:39:44.954Z,22.60
2018-07-27T06:42:13.631Z,22.80
2018-07-27T06:44:42.045Z,22.90
2018-07-27T06:47:10.371Z,23.00
2018-07-27T06:49:38.635Z,23.10
2018-07-27T06:54:35.040Z,23.30
2018-07-27T06:57:03.307Z,23.30
2018-07-27T06:59:31.578Z,23.40
2018-07-27T07:01:59.917Z,23.40
2018-07-27T07:04:28.245Z,23.60
2018-07-27T07:06:56.601Z,23.70
2018-07-27T07:09:24.923Z,23.90
2018-07-27T07:11:53.243Z,24.00
2018-07-27T07:14:21.559Z,24.30
2018-07-27T07:16:49.844Z,24.50
2018-07-27T07:19:18.133Z,24.70
2018-07-27T07:21:46.414Z,24.80
2018-07-27T07:24:14.719Z,24.90
2018-07-27T07:26:43.014Z,25.00
2018-07-27T07:29:11.334Z,25.00
2018-07-27T07:31:39.594Z,25.20
2018-07-27T07:34:07.928Z,25.40
2018-07-27T07:36:36.228Z,25.50
2018-07-27T07:39:07.916Z,25.60
2018-07-27T07:41:36.117Z,25.70
2018-07-27T07:44:04.367Z,25.80
2018-07-27T07:46:32.608Z,26.00
2018-07-27T07:49:06.775Z,26.00
2018-07-27T07:51:36.414Z,26.20
2018-07-27T07:54:04.675Z,26.40
2018-07-27T07:56:33.467Z,26.50
2018-07-27T07:59:02.040Z,26.70
2018-07-27T08:01:30.514Z,26.80
2018-07-27T08:03:58.922Z,26.90
2018-07-27T08:06:27.302Z,26.90
2018-07-27T08:08:56.157Z,27.00
2018-07-27T08:11:24.760Z,27.20
2018-07-27T08:13:53.027Z,27.30
2018-07-27T08:16:21.246Z,27.30
2018-07-27T08:18:49.561Z,27.40
2018-07-27T08:21:22.649Z,27.60
2018-07-27T08:23:51.023Z,27.60
2018-07-27T08:26:54.087Z,27.70
2018-07-27T08:29:23.575Z,27.70
2018-07-27T08:31:52.816Z,27.90
2018-07-27T08:34:21.449Z,27.90
2018-07-27T08:36:50.056Z,28.10
2018-07-27T08:39:19.618Z,28.10
2018-07-27T08:41:48.373Z,28.10
2018-07-27T08:44:18.009Z,28.20
2018-07-27T08:46:46.438Z,28.40
2018-07-27T08:49:14.755Z,28.50
2018-07-27T08:51:43.208Z,28.50
2018-07-27T08:54:11.499Z,28.60
2018-07-27T08:56:39.851Z,28.60
2018-07-27T08:59:08.214Z,28.70
2018-07-27T09:01:36.547Z,28.70
2018-07-27T09:04:04.902Z,28.70
2018-07-27T09:06:33.238Z,28.80
2018-07-27T09:09:01.502Z,28.90
2018-07-27T09:11:29.838Z,28.90
2018-07-27T09:13:58.124Z,29.00
2018-07-27T09:16:26.460Z,29.10
2018-07-27T09:18:54.793Z,29.10
2018-07-27T09:21:23.129Z,29.10
2018-07-27T09:23:51.386Z,29.20
2018-07-27T09:26:19.599Z,29.20
2018-07-27T09:28:47.955Z,29.30
2018-07-27T09:38:40.337Z,29.70
2018-07-27T09:41:08.735Z,29.70
2018-07-27T09:43:37.044Z,29.70
2018-07-27T09:46:05.948Z,29.80
2018-07-27T09:48:34.238Z,29.90
2018-07-27T09:51:02.644Z,29.90
2018-07-27T09:53:30.962Z,30.00
2018-07-27T09:55:59.295Z,30.20
2018-07-27T09:58:27.633Z,30.20
2018-07-27T10:01:01.198Z,30.30
2018-07-27T10:03:29.529Z,30.40
2018-07-27T10:05:57.849Z,30.30
2018-07-27T10:08:26.158Z,30.40
2018-07-27T10:10:54.441Z,30.30
2018-07-27T10:13:22.732Z,30.30
2018-07-27T10:15:51.076Z,30.50
2018-07-27T10:18:19.337Z,30.60
2018-07-27T10:20:47.633Z,30.60
2018-07-27T10:23:15.979Z,30.70
2018-07-27T10:25:44.296Z,30.70
2018-07-27T10:28:12.596Z,30.80
2018-07-27T10:30:40.941Z,30.90
2018-07-27T10:33:09.211Z,31.00
2018-07-27T10:35:37.477Z,31.00
2018-07-27T10:38:05.844Z,31.20
2018-07-27T10:40:34.149Z,31.10
2018-07-27T10:43:02.367Z,31.10
2018-07-27T10:45:30.729Z,30.90
2018-07-27T10:47:59.147Z,31.00
2018-07-27T10:50:27.492Z,31.10
2018-07-27T10:52:55.818Z,31.10
2018-07-27T10:55:24.130Z,31.10
2018-07-27T10:57:52.437Z,31.30
2018-07-27T11:00:20.764Z,31.30
2018-07-27T11:02:49.056Z,31.30
2018-07-27T11:05:17.363Z,31.10
2018-07-27T11:10:13.712Z,31.30
2018-07-27T11:15:10.613Z,31.30
2018-07-27T11:17:39.309Z,31.30
2018-07-27T11:20:08.342Z,31.40
2018-07-27T11:22:36.657Z,31.40
2018-07-27T11:25:05.253Z,31.30
2018-07-27T11:27:33.534Z,31.30
2018-07-27T11:30:01.914Z,31.40
2018-07-27T11:32:30.146Z,31.60
2018-07-27T11:34:58.547Z,31.80
2018-07-27T11:37:26.924Z,31.80
2018-07-27T11:39:55.220Z,32.00
2018-07-27T11:42:23.488Z,32.10
2018-07-27T11:44:51.791Z,32.20
2018-07-27T11:47:20.035Z,32.30
2018-07-27T11:49:48.322Z,32.50
2018-07-27T11:52:16.617Z,32.50
2018-07-27T11:54:44.932Z,32.10
2018-07-27T11:57:13.257Z,31.80
2018-07-27T11:59:41.541Z,31.60
2018-07-27T12:02:09.858Z,31.60
2018-07-27T12:04:38.152Z,31.60
2018-07-27T12:07:06.416Z,31.70
2018-07-27T12:09:34.795Z,31.50
2018-07-27T12:12:03.116Z,31.40
2018-07-27T12:14:31.469Z,31.40
2018-07-27T12:16:59.620Z,31.40
2018-07-27T12:19:27.881Z,31.40
2018-07-27T12:21:56.172Z,31.30
2018-07-27T12:24:24.466Z,31.30
2018-07-27T12:26:52.822Z,31.40
2018-07-27T12:29:21.150Z,31.40
2018-07-27T12:31:49.430Z,31.30
2018-07-27T12:34:17.743Z,31.20
2018-07-27T12:36:46.809Z,31.20
2018-07-27T12:39:15.116Z,31.10
2018-07-27T12:41:43.352Z,30.90
2018-07-27T12:44:11.903Z,30.90
2018-07-27T12:46:40.350Z,30.90
2018-07-27T12:49:09.126Z,31.00
2018-07-27T12:51:37.469Z,31.10
2018-07-27T12:54:07.063Z,31.00
2018-07-27T12:56:35.324Z,31.00
2018-07-27T12:59:03.690Z,31.00
2018-07-27T13:01:31.983Z,31.10
2018-07-27T13:04:00.287Z,31.00
2018-07-27T13:06:28.576Z,31.00
2018-07-27T13:08:56.937Z,31.10
2018-07-27T13:11:25.225Z,31.40
2018-07-27T13:13:53.486Z,31.70
2018-07-27T13:16:21.816Z,32.10
2018-07-27T13:18:50.167Z,32.40
2018-07-27T13:21:18.510Z,32.60
2018-07-27T13:23:55.292Z,32.70
2018-07-27T13:28:52.041Z,32.80
2018-07-27T13:31:30.467Z,32.70
2018-07-27T13:34:44.064Z,32.50
2018-07-27T13:37:12.636Z,32.30
2018-07-27T13:39:41.574Z,32.30
2018-07-27T13:42:11.641Z,32.50
2018-07-27T13:44:40.267Z,32.60
2018-07-27T13:47:09.820Z,32.90
2018-07-27T13:49:38.171Z,32.90
2018-07-27T13:52:06.403Z,33.00
2018-07-27T13:54:35.409Z,32.90
2018-07-27T13:57:03.899Z,32.80
2018-07-27T13:59:32.258Z,33.00
2018-07-27T14:02:00.552Z,33.20
2018-07-27T14:04:28.917Z,33.50
2018-07-27T14:06:58.478Z,33.50
2018-07-27T14:09:26.764Z,33.40
2018-07-27T14:11:55.158Z,33.40
2018-07-27T14:14:23.490Z,33.50
2018-07-27T14:16:51.726Z,33.60
2018-07-27T14:19:20.301Z,33.70
2018-07-27T14:21:48.584Z,33.80
2018-07-27T14:24:16.858Z,33.80
2018-07-27T14:26:45.284Z,33.70
2018-07-27T14:29:13.650Z,33.60
2018-07-27T14:31:42.019Z,33.40
2018-07-27T14:34:10.449Z,33.20
2018-07-27T14:36:38.972Z,33.00
2018-07-27T14:39:10.203Z,32.80
2018-07-27T14:41:38.537Z,32.60
2018-07-27T14:44:06.771Z,32.50
2018-07-27T14:46:35.295Z,32.40
2018-07-27T14:49:07.817Z,32.20
2018-07-27T14:51:36.141Z,32.00
2018-07-27T14:56:33.213Z,31.90
2018-07-27T14:59:01.553Z,31.80
2018-07-27T15:01:29.853Z,31.70
2018-07-27T15:03:58.164Z,31.50
2018-07-27T15:06:26.443Z,31.40
2018-07-27T15:08:54.704Z,31.30
2018-07-27T15:11:23.007Z,31.30
2018-07-27T15:13:51.298Z,31.30
2018-07-27T15:16:19.616Z,31.20
2018-07-27T15:18:47.923Z,31.00
2018-07-27T15:21:16.151Z,30.90
2018-07-27T15:23:44.470Z,30.80
2018-07-27T15:26:12.794Z,30.70
2018-07-27T15:28:41.043Z,30.70
2018-07-27T15:31:09.302Z,30.60
2018-07-27T15:33:37.516Z,30.60
2018-07-27T15:36:05.981Z,30.40
2018-07-27T15:38:34.302Z,30.40
2018-07-27T15:41:02.633Z,30.30
2018-07-27T15:43:30.888Z,30.20
2018-07-27T15:45:59.181Z,30.20
2018-07-27T15:48:27.584Z,30.20
2018-07-27T15:50:55.791Z,30.20
2018-07-27T15:53:24.042Z,30.10
2018-07-27T15:55:52.343Z,30.10
2018-07-27T15:58:20.589Z,30.10
2018-07-27T16:00:48.843Z,30.10
2018-07-27T16:03:17.120Z,30.20
2018-07-27T16:05:45.449Z,30.30
2018-07-27T16:08:13.747Z,30.30
2018-07-27T16:10:42.055Z,30.40
2018-07-27T16:13:10.544Z,30.30
2018-07-27T16:15:38.833Z,30.20
2018-07-27T16:18:07.204Z,30.10
2018-07-27T16:20:35.528Z,30.00
2018-07-27T16:23:03.915Z,29.90
2018-07-27T16:25:32.329Z,29.90
2018-07-27T16:28:00.648Z,29.90
2018-07-27T16:30:28.961Z,30.00
2018-07-27T16:32:57.294Z,30.00
2018-07-27T16:35:25.642Z,29.90
2018-07-27T16:37:53.944Z,29.90
2018-07-27T16:40:22.327Z,29.90
2018-07-27T16:42:50.612Z,29.90
2018-07-27T16:45:18.869Z,29.80
2018-07-27T16:47:47.241Z,29.70
2018-07-27T16:50:15.470Z,29.70
2018-07-27T16:52:43.742Z,29.50
2018-07-27T16:55:12.005Z,29.50
2018-07-27T16:57:40.371Z,29.40
2018-07-27T17:00:11.699Z,29.30
2018-07-27T17:02:40.013Z,29.30
2018-07-27T17:05:08.353Z,29.10
2018-07-27T17:07:42.986Z,29.00
2018-07-27T17:10:11.266Z,28.80
2018-07-27T17:12:39.562Z,28.80
2018-07-27T17:15:07.998Z,28.90
2018-07-27T17:17:36.365Z,28.90
2018-07-27T17:20:05.531Z,28.90
2018-07-27T17:22:33.814Z,28.90
2018-07-27T17:25:02.108Z,28.90
2018-07-27T17:27:30.416Z,28.90
2018-07-27T17:29:58.715Z,28.90
2018-07-27T17:32:27.002Z,28.80
2018-07-27T17:34:55.261Z,28.90
2018-07-27T17:37:23.605Z,28.90
2018-07-27T17:44:48.046Z,28.80
2018-07-27T17:47:16.358Z,28.80
2018-07-27T17:49:44.640Z,28.70
2018-07-27T17:52:12.946Z,28.80
2018-07-27T17:54:41.290Z,28.80
2018-07-27T17:57:09.512Z,28.80
2018-07-27T17:59:37.832Z,28.80
2018-07-27T18:02:06.093Z,28.90
2018-07-27T18:04:34.373Z,28.90
2018-07-27T18:07:02.763Z,28.80
2018-07-27T18:09:30.962Z,28.70
2018-07-27T18:11:59.276Z,28.70
2018-07-27T18:14:27.608Z,28.50
2018-07-27T18:16:55.981Z,28.40
2018-07-27T18:19:24.367Z,28.20
2018-07-27T18:21:52.693Z,28.20
2018-07-27T18:24:21.090Z,28.10
2018-07-27T18:26:49.415Z,28.00
2018-07-27T18:31:45.809Z,27.80
2018-07-27T18:34:14.133Z,27.70
2018-07-27T18:36:42.482Z,27.60
2018-07-27T18:39:12.254Z,27.40
2018-07-27T18:41:40.612Z,27.40
2018-07-27T18:44:09.140Z,27.30
2018-07-27T18:46:38.525Z,27.10
2018-07-27T18:49:06.798Z,27.00
2018-07-27T18:51:35.156Z,27.00
2018-07-27T18:54:03.845Z,27.00
2018-07-27T18:56:32.120Z,26.80
2018-07-27T18:59:00.362Z,26.70
2018-07-27T19:01:28.696Z,26.60
2018-07-27T19:03:56.929Z,26.50
2018-07-27T19:06:25.268Z,26.30
2018-07-27T19:08:53.570Z,26.10
2018-07-27T19:13:49.869Z,26.00
2018-07-27T19:16:18.173Z,25.90
2018-07-27T19:18:46.484Z,25.90
2018-07-27T19:21:14.757Z,25.80
2018-07-27T19:26:11.154Z,25.50
2018-07-27T19:28:39.420Z,25.50
2018-07-27T19:31:08.082Z,25.40
2018-07-27T19:33:36.364Z,25.40
2018-07-27T19:36:04.706Z,25.30
2018-07-27T19:38:32.984Z,25.10
2018-07-27T19:41:01.347Z,25.10
2018-07-27T19:43:29.639Z,25.00
2018-07-27T19:45:57.902Z,24.90
2018-07-27T19:50:54.641Z,24.70
2018-07-27T19:53:22.902Z,24.70
2018-07-27T19:55:51.175Z,24.60
2018-07-27T19:58:19.463Z,24.60
2018-07-27T20:00:47.771Z,24.50
2018-07-27T20:03:16.061Z,24.40
2018-07-27T20:05:44.528Z,24.30
2018-07-27T20:08:12.820Z,24.30
2018-07-27T20:10:41.205Z,24.30
2018-07-27T20:13:09.551Z,24.20
2018-07-27T20:15:38.916Z,24.10
2018-07-27T20:18:07.210Z,24.00
2018-07-27T20:20:35.549Z,24.00
2018-07-27T20:23:03.872Z,23.90
2018-07-27T20:25:32.248Z,24.00
2018-07-27T20:28:00.545Z,23.90
2018-07-27T20:33:00.750Z,23.90
2018-07-27T20:35:29.045Z,23.80
2018-07-27T20:37:57.376Z,23.90
2018-07-27T20:40:25.696Z,23.90
2018-07-27T20:42:54.072Z,23.80
2018-07-27T20:45:22.325Z,23.70
2018-07-27T20:47:50.610Z,23.60
2018-07-27T20:50:18.841Z,23.60
2018-07-27T20:52:47.110Z,23.70
2018-07-27T20:55:15.406Z,23.70
2018-07-27T20:57:43.669Z,23.60
2018-07-27T21:00:13.112Z,23.50
2018-07-27T21:02:42.633Z,23.50
2018-07-27T21:05:11.648Z,23.50
2018-07-27T21:07:40.428Z,23.40
2018-07-27T21:10:08.858Z,23.40
2018-07-27T21:12:37.153Z,23.30
2018-07-27T21:15:05.500Z,23.20
2018-07-27T21:17:33.773Z,23.30
2018-07-27T21:20:02.185Z,23.30
2018-07-27T21:22:30.488Z,23.10
2018-07-27T21:24:58.981Z,23.20
2018-07-27T21:27:27.365Z,23.10
2018-07-27T21:29:55.657Z,23.00
2018-07-27T21:32:23.912Z,23.00
2018-07-27T21:34:52.196Z,22.90
2018-07-27T21:37:20.492Z,23.00
2018-07-27T21:39:48.890Z,22.90
2018-07-27T21:42:17.338Z,22.80
2018-07-27T21:44:45.681Z,22.80
2018-07-27T21:47:14.053Z,22.80
2018-07-27T21:49:42.391Z,22.90
2018-07-27T21:52:10.780Z,22.80
2018-07-27T21:54:39.157Z,22.80
2018-07-27T21:57:07.535Z,22.70
2018-07-27T21:59:35.861Z,22.80
2018-07-27T22:02:04.171Z,22.70
2018-07-27T22:04:32.507Z,22.60
2018-07-27T22:07:00.972Z,22.50
2018-07-27T22:09:29.243Z,22.40
2018-07-27T22:11:57.552Z,22.50
2018-07-27T22:14:25.834Z,22.40
2018-07-27T22:16:54.105Z,22.40
2018-07-27T22:19:22.532Z,22.30
2018-07-27T22:21:50.848Z,22.30
2018-07-27T22:24:19.178Z,22.40
2018-07-27T22:26:47.518Z,22.30
2018-07-27T22:29:15.805Z,22.30
2018-07-27T22:31:44.149Z,22.30
2018-07-27T22:34:12.401Z,22.30
2018-07-27T22:36:40.761Z,22.30
2018-07-27T22:39:10.342Z,22.30
2018-07-27T22:41:38.677Z,22.20
2018-07-27T22:46:35.335Z,22.10
2018-07-27T22:49:03.679Z,22.10
2018-07-27T22:51:31.983Z,22.20
2018-07-27T22:54:00.366Z,22.00
2018-07-27T22:56:28.629Z,22.10
2018-07-27T22:58:56.969Z,22.00
2018-07-27T23:01:25.248Z,22.00
2018-07-27T23:03:53.581Z,22.00
2018-07-27T23:06:21.898Z,22.00
2018-07-27T23:08:50.213Z,22.00
2018-07-27T23:11:18.531Z,22.00
2018-07-27T23:13:46.856Z,21.90
2018-07-27T23:16:15.188Z,21.90
2018-07-27T23:18:43.518Z,21.90
2018-07-27T23:21:11.867Z,21.80
2018-07-27T23:23:46.590Z,21.80
2018-07-27T23:26:14.905Z,21.90
2018-07-27T23:28:43.253Z,21.90
2018-07-27T23:31:11.554Z,21.90
2018-07-27T23:33:39.864Z,21.90
2018-07-27T23:36:08.208Z,21.80
2018-07-27T23:38:36.475Z,21.70
2018-07-27T23:41:04.760Z,21.60
2018-07-27T23:43:33.068Z,21.50
2018-07-27T23:46:01.368Z,21.50
2018-07-27T23:48:29.719Z,21.40
2018-07-27T23:50:58.040Z,21.50
2018-07-27T23:53:26.355Z,21.50
2018-07-27T23:55:54.647Z,21.50
2018-07-27T23:58:22.967Z,21.50
